Rechercher aéroport 
image banner adimage banner adimage banner ad
image banner ad

CA96 - Goleta Valley Community Hospital Heliport

Situé à Santa Barbara, United States

ICAO - CA96, IATA -

Données fournies par Airmate  

Information générale

Coordonnées: N36°50'9" W119°45'53"
Élévation : 450 feet MSL.
 
Voir autres Aéroports à California

Données opérationnelles

Special qualification required
Heure actuelle UTC:
Heure actuelle locale:
Météo à : KFAT - Fresno Yosemite Intl ( 8 km )
METAR: KFAT 262153Z 23005KT 10SM FEW070 FEW200 35/02 A2985 RMK AO2 SLP104 MTNS OBSC FU HZ DSNT N-E-S T03500017 $
TAF: KFAT 261720Z 2618/2718 VRB04KT P6SM FEW070 SCT150 BKN200
Voir NOTAMs / SUP AIP / TFR affectant cet aéroport [VIEW]
Fréquences de communication: [VIEW]

Pistes:

Coordonnées de l'aéroport

Adresse: Santa Barbara United States

Vue satellite de CA96